Terminal Aerodrome Forecast
Issued by NWS

Home | Current Version | Previous Version | Text Only | Print | Product List | Glossary On
Versions: 1 2 3 4 5 6 7 8 9 10 11 12 13 14 15 16 17 18 19 20 21 22 23 24 25 26 27 28 29 30 31 32 33 34 35 36 37 38 39 40 41 42 43 44 45 46 47 48 49 50
145
FTUS45 KTFX 162320
TAFLWT
TAF
KLWT 162320Z 1700/1724 VRB06KT P6SM VCSH SCT060 BKN100
      TEMPO 1700/1703 VRB20G35KT 5SM TSRA BKN040CB
     FM170600 VRB05KT P6SM FEW060 SCT090
     FM171900 28013G21KT P6SM SCT090 BKN150=

USA.gov is the U.S. government's official web portal to all federal, state and local government web resources and services.